sensor_id;sensor_type;location;lat;lon;timestamp;temperature;humidity
23719;DHT22;43322;52.230;5.702;2023-08-08T00:01:12;14.40;99.90
23719;DHT22;43322;52.230;5.702;2023-08-08T00:03:39;14.40;99.90
23719;DHT22;43322;52.230;5.702;2023-08-08T00:06:06;14.50;99.90
23719;DHT22;43322;52.230;5.702;2023-08-08T00:08:34;14.50;99.90
23719;DHT22;43322;52.230;5.702;2023-08-08T00:11:00;14.50;99.90
23719;DHT22;43322;52.230;5.702;2023-08-08T00:13:27;14.50;99.90
23719;DHT22;43322;52.230;5.702;2023-08-08T00:15:54;14.50;99.90
23719;DHT22;43322;52.230;5.702;2023-08-08T00:18:21;14.60;99.90
23719;DHT22;43322;52.230;5.702;2023-08-08T00:20:47;14.60;99.90
23719;DHT22;43322;52.230;5.702;2023-08-08T00:23:14;14.50;99.90
23719;DHT22;43322;52.230;5.702;2023-08-08T00:25:42;14.60;99.90
23719;DHT22;43322;52.230;5.702;2023-08-08T00:28:09;14.50;99.90
23719;DHT22;43322;52.230;5.702;2023-08-08T00:30:35;14.50;99.90
23719;DHT22;43322;52.230;5.702;2023-08-08T00:33:02;14.50;99.90
23719;DHT22;43322;52.230;5.702;2023-08-08T00:35:29;14.60;99.90
23719;DHT22;43322;52.230;5.702;2023-08-08T00:37:55;14.60;99.90
23719;DHT22;43322;52.230;5.702;2023-08-08T00:40:22;14.60;99.90
23719;DHT22;43322;52.230;5.702;2023-08-08T00:42:50;14.70;99.90
23719;DHT22;43322;52.230;5.702;2023-08-08T00:45:17;14.70;99.90
23719;DHT22;43322;52.230;5.702;2023-08-08T00:47:43;14.60;99.90
23719;DHT22;43322;52.230;5.702;2023-08-08T00:50:10;14.60;99.90
23719;DHT22;43322;52.230;5.702;2023-08-08T00:52:38;14.70;99.90
23719;DHT22;43322;52.230;5.702;2023-08-08T00:55:06;14.60;99.90
23719;DHT22;43322;52.230;5.702;2023-08-08T00:57:33;14.70;99.90
23719;DHT22;43322;52.230;5.702;2023-08-08T01:00:06;14.60;99.90
23719;DHT22;43322;52.230;5.702;2023-08-08T01:02:35;14.60;99.90
23719;DHT22;43322;52.230;5.702;2023-08-08T01:05:02;14.60;99.90
23719;DHT22;43322;52.230;5.702;2023-08-08T01:07:35;14.60;99.90
23719;DHT22;43322;52.230;5.702;2023-08-08T01:10:06;14.60;99.90
23719;DHT22;43322;52.230;5.702;2023-08-08T01:12:36;14.60;99.90
23719;DHT22;43322;52.230;5.702;2023-08-08T01:15:07;14.50;99.90
23719;DHT22;43322;52.230;5.702;2023-08-08T01:17:35;14.50;99.90
23719;DHT22;43322;52.230;5.702;2023-08-08T01:20:03;14.60;99.90
23719;DHT22;43322;52.230;5.702;2023-08-08T01:22:35;14.50;99.90
23719;DHT22;43322;52.230;5.702;2023-08-08T01:25:05;14.50;99.90
23719;DHT22;43322;52.230;5.702;2023-08-08T01:27:33;14.50;99.90
23719;DHT22;43322;52.230;5.702;2023-08-08T01:29:59;14.60;99.90
23719;DHT22;43322;52.230;5.702;2023-08-08T01:32:26;14.50;99.90
23719;DHT22;43322;52.230;5.702;2023-08-08T01:34:53;14.50;99.90
23719;DHT22;43322;52.230;5.702;2023-08-08T01:37:24;14.60;99.90
23719;DHT22;43322;52.230;5.702;2023-08-08T01:39:53;14.60;99.90
23719;DHT22;43322;52.230;5.702;2023-08-08T01:42:24;14.60;99.90
23719;DHT22;43322;52.230;5.702;2023-08-08T01:44:53;14.60;99.90
23719;DHT22;43322;52.230;5.702;2023-08-08T01:47:19;14.60;99.90
23719;DHT22;43322;52.230;5.702;2023-08-08T01:49:46;14.60;99.90
23719;DHT22;43322;52.230;5.702;2023-08-08T01:52:13;14.60;99.90
23719;DHT22;43322;52.230;5.702;2023-08-08T01:54:39;14.70;99.90
23719;DHT22;43322;52.230;5.702;2023-08-08T01:57:07;14.70;99.90
23719;DHT22;43322;52.230;5.702;2023-08-08T01:59:35;14.60;99.90
23719;DHT22;43322;52.230;5.702;2023-08-08T02:02:02;14.60;99.90
23719;DHT22;43322;52.230;5.702;2023-08-08T02:04:29;14.60;99.90
23719;DHT22;43322;52.230;5.702;2023-08-08T02:06:56;14.60;99.90
23719;DHT22;43322;52.230;5.702;2023-08-08T02:09:22;14.60;99.90
23719;DHT22;43322;52.230;5.702;2023-08-08T02:11:49;14.70;99.90
23719;DHT22;43322;52.230;5.702;2023-08-08T02:14:16;14.70;99.90
23719;DHT22;43322;52.230;5.702;2023-08-08T02:16:44;14.60;99.90
23719;DHT22;43322;52.230;5.702;2023-08-08T02:19:10;14.70;99.90
23719;DHT22;43322;52.230;5.702;2023-08-08T02:21:37;14.60;99.90
23719;DHT22;43322;52.230;5.702;2023-08-08T02:24:04;14.70;99.90
23719;DHT22;43322;52.230;5.702;2023-08-08T02:26:31;14.70;99.90
23719;DHT22;43322;52.230;5.702;2023-08-08T02:28:58;14.70;99.90
23719;DHT22;43322;52.230;5.702;2023-08-08T02:31:24;14.60;99.90
23719;DHT22;43322;52.230;5.702;2023-08-08T02:33:52;14.60;99.90
23719;DHT22;43322;52.230;5.702;2023-08-08T02:36:20;14.50;99.90
23719;DHT22;43322;52.230;5.702;2023-08-08T02:38:46;13.90;99.90
23719;DHT22;43322;52.230;5.702;2023-08-08T02:41:15;14.50;99.90
23719;DHT22;43322;52.230;5.702;2023-08-08T02:43:41;14.50;99.90
23719;DHT22;43322;52.230;5.702;2023-08-08T02:46:08;14.50;99.90
23719;DHT22;43322;52.230;5.702;2023-08-08T02:48:35;14.40;99.90
23719;DHT22;43322;52.230;5.702;2023-08-08T02:51:03;14.50;99.90
23719;DHT22;43322;52.230;5.702;2023-08-08T02:53:29;14.40;99.90
23719;DHT22;43322;52.230;5.702;2023-08-08T02:55:56;14.40;99.90
23719;DHT22;43322;52.230;5.702;2023-08-08T02:58:22;14.30;99.90
23719;DHT22;43322;52.230;5.702;2023-08-08T03:00:49;14.40;99.90
23719;DHT22;43322;52.230;5.702;2023-08-08T03:03:16;14.30;99.90
23719;DHT22;43322;52.230;5.702;2023-08-08T03:05:43;14.40;99.90
23719;DHT22;43322;52.230;5.702;2023-08-08T03:08:12;14.40;99.90
23719;DHT22;43322;52.230;5.702;2023-08-08T03:10:38;14.40;99.90
23719;DHT22;43322;52.230;5.702;2023-08-08T03:13:06;14.40;99.90
23719;DHT22;43322;52.230;5.702;2023-08-08T03:15:33;14.40;99.90
23719;DHT22;43322;52.230;5.702;2023-08-08T03:18:00;14.30;99.90
23719;DHT22;43322;52.230;5.702;2023-08-08T03:20:27;14.30;99.90
23719;DHT22;43322;52.230;5.702;2023-08-08T03:22:54;14.30;99.90
23719;DHT22;43322;52.230;5.702;2023-08-08T03:25:22;14.30;99.90
23719;DHT22;43322;52.230;5.702;2023-08-08T03:27:48;14.30;99.90
23719;DHT22;43322;52.230;5.702;2023-08-08T03:30:15;14.30;99.90
23719;DHT22;43322;52.230;5.702;2023-08-08T03:32:42;14.30;99.90
23719;DHT22;43322;52.230;5.702;2023-08-08T03:35:09;14.30;99.90
23719;DHT22;43322;52.230;5.702;2023-08-08T03:37:35;14.30;99.90
23719;DHT22;43322;52.230;5.702;2023-08-08T03:40:03;14.30;99.90
23719;DHT22;43322;52.230;5.702;2023-08-08T03:42:31;14.40;99.90
23719;DHT22;43322;52.230;5.702;2023-08-08T03:44:57;14.30;99.90
23719;DHT22;43322;52.230;5.702;2023-08-08T03:47:24;14.40;99.90
23719;DHT22;43322;52.230;5.702;2023-08-08T03:49:51;14.40;99.90
23719;DHT22;43322;52.230;5.702;2023-08-08T03:52:20;14.30;99.90
23719;DHT22;43322;52.230;5.702;2023-08-08T03:54:47;14.30;99.90
23719;DHT22;43322;52.230;5.702;2023-08-08T03:57:13;14.40;99.90
23719;DHT22;43322;52.230;5.702;2023-08-08T03:59:41;14.30;99.90
23719;DHT22;43322;52.230;5.702;2023-08-08T04:02:08;14.30;99.90
23719;DHT22;43322;52.230;5.702;2023-08-08T04:04:35;14.30;99.90
23719;DHT22;43322;52.230;5.702;2023-08-08T04:07:01;14.20;99.90
23719;DHT22;43322;52.230;5.702;2023-08-08T04:09:28;14.30;99.90
23719;DHT22;43322;52.230;5.702;2023-08-08T04:11:55;14.20;99.90
23719;DHT22;43322;52.230;5.702;2023-08-08T04:14:22;14.30;99.90
23719;DHT22;43322;52.230;5.702;2023-08-08T04:16:50;14.30;99.90
23719;DHT22;43322;52.230;5.702;2023-08-08T04:19:16;14.30;99.90
23719;DHT22;43322;52.230;5.702;2023-08-08T04:21:43;14.30;99.90
23719;DHT22;43322;52.230;5.702;2023-08-08T04:24:10;14.30;99.90
23719;DHT22;43322;52.230;5.702;2023-08-08T04:26:37;14.30;99.90
23719;DHT22;43322;52.230;5.702;2023-08-08T04:29:05;14.20;99.90
23719;DHT22;43322;52.230;5.702;2023-08-08T04:31:31;14.30;99.90
23719;DHT22;43322;52.230;5.702;2023-08-08T04:33:59;14.30;99.90
23719;DHT22;43322;52.230;5.702;2023-08-08T04:36:26;14.30;99.90
23719;DHT22;43322;52.230;5.702;2023-08-08T04:38:53;14.20;99.90
23719;DHT22;43322;52.230;5.702;2023-08-08T04:41:20;14.20;99.90
23719;DHT22;43322;52.230;5.702;2023-08-08T04:43:46;14.10;99.90
23719;DHT22;43322;52.230;5.702;2023-08-08T04:46:13;14.10;99.90
23719;DHT22;43322;52.230;5.702;2023-08-08T04:48:40;14.00;99.90
23719;DHT22;43322;52.230;5.702;2023-08-08T04:51:09;14.10;99.90
23719;DHT22;43322;52.230;5.702;2023-08-08T04:53:35;14.00;99.90
23719;DHT22;43322;52.230;5.702;2023-08-08T04:56:02;14.00;99.90
23719;DHT22;43322;52.230;5.702;2023-08-08T04:58:29;14.00;99.90
23719;DHT22;43322;52.230;5.702;2023-08-08T05:00:56;14.00;99.90
23719;DHT22;43322;52.230;5.702;2023-08-08T05:03:22;14.10;99.90
23719;DHT22;43322;52.230;5.702;2023-08-08T05:05:49;14.10;99.90
23719;DHT22;43322;52.230;5.702;2023-08-08T05:08:17;14.20;99.90
23719;DHT22;43322;52.230;5.702;2023-08-08T05:10:44;14.20;99.90
23719;DHT22;43322;52.230;5.702;2023-08-08T05:13:12;14.20;99.90
23719;DHT22;43322;52.230;5.702;2023-08-08T05:15:39;14.20;99.90
23719;DHT22;43322;52.230;5.702;2023-08-08T05:18:05;14.20;99.90
23719;DHT22;43322;52.230;5.702;2023-08-08T05:20:32;14.30;99.90
23719;DHT22;43322;52.230;5.702;2023-08-08T05:22:59;14.30;99.90
23719;DHT22;43322;52.230;5.702;2023-08-08T05:25:27;14.30;99.90
23719;DHT22;43322;52.230;5.702;2023-08-08T05:27:53;14.40;99.90
23719;DHT22;43322;52.230;5.702;2023-08-08T05:30:20;14.40;99.90
23719;DHT22;43322;52.230;5.702;2023-08-08T05:32:47;14.40;99.90
23719;DHT22;43322;52.230;5.702;2023-08-08T05:35:14;14.30;99.90
23719;DHT22;43322;52.230;5.702;2023-08-08T05:37:40;14.40;99.90
23719;DHT22;43322;52.230;5.702;2023-08-08T05:40:08;14.30;99.90
23719;DHT22;43322;52.230;5.702;2023-08-08T05:42:37;14.40;99.90
23719;DHT22;43322;52.230;5.702;2023-08-08T05:45:04;14.40;99.90
23719;DHT22;43322;52.230;5.702;2023-08-08T05:47:31;14.40;99.90
23719;DHT22;43322;52.230;5.702;2023-08-08T05:49:58;14.40;99.90
23719;DHT22;43322;52.230;5.702;2023-08-08T05:52:25;14.40;99.90
23719;DHT22;43322;52.230;5.702;2023-08-08T05:54:51;14.40;99.90
23719;DHT22;43322;52.230;5.702;2023-08-08T05:57:18;14.50;99.90
23719;DHT22;43322;52.230;5.702;2023-08-08T05:59:48;14.50;99.90
23719;DHT22;43322;52.230;5.702;2023-08-08T06:02:14;14.50;99.90
23719;DHT22;43322;52.230;5.702;2023-08-08T06:04:41;14.50;99.90
23719;DHT22;43322;52.230;5.702;2023-08-08T06:07:08;14.60;99.90
23719;DHT22;43322;52.230;5.702;2023-08-08T06:09:35;14.70;99.90
23719;DHT22;43322;52.230;5.702;2023-08-08T06:12:03;14.80;99.90
23719;DHT22;43322;52.230;5.702;2023-08-08T06:14:30;14.70;99.90
23719;DHT22;43322;52.230;5.702;2023-08-08T06:16:58;14.70;99.90
23719;DHT22;43322;52.230;5.702;2023-08-08T06:19:25;14.60;99.90
23719;DHT22;43322;52.230;5.702;2023-08-08T06:21:51;14.60;99.90
23719;DHT22;43322;52.230;5.702;2023-08-08T06:24:18;14.60;99.90
23719;DHT22;43322;52.230;5.702;2023-08-08T06:26:45;14.60;99.90
23719;DHT22;43322;52.230;5.702;2023-08-08T06:29:11;14.80;99.90
23719;DHT22;43322;52.230;5.702;2023-08-08T06:31:39;14.90;99.90
23719;DHT22;43322;52.230;5.702;2023-08-08T06:34:07;14.90;99.90
23719;DHT22;43322;52.230;5.702;2023-08-08T06:36:34;14.90;99.90
23719;DHT22;43322;52.230;5.702;2023-08-08T06:39:01;14.90;99.90
23719;DHT22;43322;52.230;5.702;2023-08-08T06:41:28;14.90;99.90
23719;DHT22;43322;52.230;5.702;2023-08-08T06:43:55;14.90;99.90
23719;DHT22;43322;52.230;5.702;2023-08-08T06:46:21;15.00;99.90
23719;DHT22;43322;52.230;5.702;2023-08-08T06:48:50;15.00;99.90
23719;DHT22;43322;52.230;5.702;2023-08-08T06:51:20;15.10;99.90
23719;DHT22;43322;52.230;5.702;2023-08-08T06:53:46;15.10;99.90
23719;DHT22;43322;52.230;5.702;2023-08-08T06:56:13;15.10;99.90
23719;DHT22;43322;52.230;5.702;2023-08-08T06:58:40;15.30;99.90
23719;DHT22;43322;52.230;5.702;2023-08-08T07:01:06;15.20;99.90
23719;DHT22;43322;52.230;5.702;2023-08-08T07:03:33;15.30;99.90
23719;DHT22;43322;52.230;5.702;2023-08-08T07:06:00;15.30;99.90
23719;DHT22;43322;52.230;5.702;2023-08-08T07:08:29;15.40;99.90
23719;DHT22;43322;52.230;5.702;2023-08-08T07:10:56;15.40;99.90
23719;DHT22;43322;52.230;5.702;2023-08-08T07:13:23;15.40;99.90
23719;DHT22;43322;52.230;5.702;2023-08-08T07:15:50;15.40;99.90
23719;DHT22;43322;52.230;5.702;2023-08-08T07:18:17;15.50;99.90
23719;DHT22;43322;52.230;5.702;2023-08-08T07:20:43;15.70;99.90
23719;DHT22;43322;52.230;5.702;2023-08-08T07:23:10;15.90;99.90
23719;DHT22;43322;52.230;5.702;2023-08-08T07:25:38;15.90;99.90
23719;DHT22;43322;52.230;5.702;2023-08-08T07:28:05;16.00;99.90
23719;DHT22;43322;52.230;5.702;2023-08-08T07:30:31;15.80;99.90
23719;DHT22;43322;52.230;5.702;2023-08-08T07:32:58;15.70;99.90
23719;DHT22;43322;52.230;5.702;2023-08-08T07:35:25;15.70;99.90
23719;DHT22;43322;52.230;5.702;2023-08-08T07:37:52;15.70;99.90
23719;DHT22;43322;52.230;5.702;2023-08-08T07:40:20;15.80;99.90
23719;DHT22;43322;52.230;5.702;2023-08-08T07:42:49;15.80;99.90
23719;DHT22;43322;52.230;5.702;2023-08-08T07:45:16;16.00;99.90
23719;DHT22;43322;52.230;5.702;2023-08-08T07:47:42;16.10;99.90
23719;DHT22;43322;52.230;5.702;2023-08-08T07:50:09;16.10;99.90
23719;DHT22;43322;52.230;5.702;2023-08-08T07:52:36;16.10;99.90
23719;DHT22;43322;52.230;5.702;2023-08-08T07:55:04;16.30;99.90
23719;DHT22;43322;52.230;5.702;2023-08-08T07:57:32;16.30;99.90
23719;DHT22;43322;52.230;5.702;2023-08-08T08:00:01;16.30;99.90
23719;DHT22;43322;52.230;5.702;2023-08-08T08:02:34;16.30;99.90
23719;DHT22;43322;52.230;5.702;2023-08-08T08:05:01;16.30;99.90
23719;DHT22;43322;52.230;5.702;2023-08-08T08:07:30;16.30;99.90
23719;DHT22;43322;52.230;5.702;2023-08-08T08:09:57;16.40;99.90
23719;DHT22;43322;52.230;5.702;2023-08-08T08:12:24;16.60;99.90
23719;DHT22;43322;52.230;5.702;2023-08-08T08:14:51;16.60;99.90
23719;DHT22;43322;52.230;5.702;2023-08-08T08:17:19;16.70;99.90
23719;DHT22;43322;52.230;5.702;2023-08-08T08:19:45;16.70;99.90
23719;DHT22;43322;52.230;5.702;2023-08-08T08:22:12;16.50;99.90
23719;DHT22;43322;52.230;5.702;2023-08-08T08:24:39;16.70;99.90
23719;DHT22;43322;52.230;5.702;2023-08-08T08:27:05;17.10;99.90
23719;DHT22;43322;52.230;5.702;2023-08-08T08:29:32;17.30;99.90
23719;DHT22;43322;52.230;5.702;2023-08-08T08:31:59;17.20;99.90
23719;DHT22;43322;52.230;5.702;2023-08-08T08:34:27;17.20;99.90
23719;DHT22;43322;52.230;5.702;2023-08-08T08:36:53;17.20;99.90
23719;DHT22;43322;52.230;5.702;2023-08-08T08:39:20;17.20;99.90
23719;DHT22;43322;52.230;5.702;2023-08-08T08:41:48;17.10;99.90
23719;DHT22;43322;52.230;5.702;2023-08-08T08:44:16;17.10;99.90
23719;DHT22;43322;52.230;5.702;2023-08-08T08:46:46;17.00;99.90
23719;DHT22;43322;52.230;5.702;2023-08-08T08:49:14;16.90;99.90
23719;DHT22;43322;52.230;5.702;2023-08-08T08:51:42;17.00;99.90
23719;DHT22;43322;52.230;5.702;2023-08-08T08:54:10;17.10;99.90
23719;DHT22;43322;52.230;5.702;2023-08-08T08:56:37;17.00;99.90
23719;DHT22;43322;52.230;5.702;2023-08-08T08:59:03;17.20;99.90
23719;DHT22;43322;52.230;5.702;2023-08-08T09:01:30;17.20;99.90
23719;DHT22;43322;52.230;5.702;2023-08-08T09:03:57;17.50;99.90
23719;DHT22;43322;52.230;5.702;2023-08-08T09:06:24;17.40;99.90
23719;DHT22;43322;52.230;5.702;2023-08-08T09:08:53;17.60;99.90
23719;DHT22;43322;52.230;5.702;2023-08-08T09:11:20;17.40;99.90
23719;DHT22;43322;52.230;5.702;2023-08-08T09:13:47;17.50;99.90
23719;DHT22;43322;52.230;5.702;2023-08-08T09:16:14;17.80;99.90
23719;DHT22;43322;52.230;5.702;2023-08-08T09:18:40;17.70;99.90
23719;DHT22;43322;52.230;5.702;2023-08-08T09:21:08;17.90;99.90
23719;DHT22;43322;52.230;5.702;2023-08-08T09:23:36;17.70;99.90
23719;DHT22;43322;52.230;5.702;2023-08-08T09:26:05;17.60;99.90
23719;DHT22;43322;52.230;5.702;2023-08-08T09:28:32;17.70;99.90
23719;DHT22;43322;52.230;5.702;2023-08-08T09:30:59;17.90;99.90
23719;DHT22;43322;52.230;5.702;2023-08-08T09:33:28;17.90;99.90
23719;DHT22;43322;52.230;5.702;2023-08-08T09:35:55;17.90;99.90
23719;DHT22;43322;52.230;5.702;2023-08-08T09:38:22;17.90;99.90
23719;DHT22;43322;52.230;5.702;2023-08-08T09:40:49;18.00;99.90
23719;DHT22;43322;52.230;5.702;2023-08-08T09:43:17;18.10;99.90
23719;DHT22;43322;52.230;5.702;2023-08-08T09:45:44;18.10;99.90
23719;DHT22;43322;52.230;5.702;2023-08-08T09:48:11;18.10;99.90
23719;DHT22;43322;52.230;5.702;2023-08-08T09:50:37;17.80;99.90
23719;DHT22;43322;52.230;5.702;2023-08-08T09:53:06;17.80;99.90
23719;DHT22;43322;52.230;5.702;2023-08-08T09:55:33;17.90;99.90
23719;DHT22;43322;52.230;5.702;2023-08-08T09:58:00;18.40;99.90
23719;DHT22;43322;52.230;5.702;2023-08-08T10:00:30;18.60;99.90
23719;DHT22;43322;52.230;5.702;2023-08-08T10:02:59;18.50;99.90
23719;DHT22;43322;52.230;5.702;2023-08-08T10:05:26;18.30;99.90
23719;DHT22;43322;52.230;5.702;2023-08-08T10:07:54;18.30;99.90
23719;DHT22;43322;52.230;5.702;2023-08-08T10:10:22;18.20;99.90
23719;DHT22;43322;52.230;5.702;2023-08-08T10:12:49;18.20;99.90
23719;DHT22;43322;52.230;5.702;2023-08-08T10:15:16;18.50;99.90
23719;DHT22;43322;52.230;5.702;2023-08-08T10:17:44;18.10;99.90
23719;DHT22;43322;52.230;5.702;2023-08-08T10:20:11;18.20;99.90
23719;DHT22;43322;52.230;5.702;2023-08-08T10:22:42;18.70;99.90
23719;DHT22;43322;52.230;5.702;2023-08-08T10:25:18;20.10;99.90
23719;DHT22;43322;52.230;5.702;2023-08-08T10:27:45;21.30;99.90
23719;DHT22;43322;52.230;5.702;2023-08-08T10:30:12;20.80;99.90
23719;DHT22;43322;52.230;5.702;2023-08-08T10:32:40;19.90;99.90
23719;DHT22;43322;52.230;5.702;2023-08-08T10:35:09;19.20;99.90
23719;DHT22;43322;52.230;5.702;2023-08-08T10:37:36;19.90;99.90
23719;DHT22;43322;52.230;5.702;2023-08-08T10:40:05;19.60;99.90
23719;DHT22;43322;52.230;5.702;2023-08-08T10:42:33;19.70;99.90
23719;DHT22;43322;52.230;5.702;2023-08-08T10:45:09;20.90;99.90
23719;DHT22;43322;52.230;5.702;2023-08-08T10:47:37;21.00;99.90
23719;DHT22;43322;52.230;5.702;2023-08-08T10:50:05;21.00;99.90
23719;DHT22;43322;52.230;5.702;2023-08-08T10:52:38;21.10;99.90
23719;DHT22;43322;52.230;5.702;2023-08-08T10:55:06;20.90;99.90
23719;DHT22;43322;52.230;5.702;2023-08-08T10:57:33;20.50;99.90
23719;DHT22;43322;52.230;5.702;2023-08-08T11:00:18;20.60;99.90
23719;DHT22;43322;52.230;5.702;2023-08-08T11:02:48;21.60;99.90
23719;DHT22;43322;52.230;5.702;2023-08-08T11:05:16;21.70;99.90
23719;DHT22;43322;52.230;5.702;2023-08-08T11:07:44;21.30;99.90
23719;DHT22;43322;52.230;5.702;2023-08-08T11:10:11;21.20;99.90
23719;DHT22;43322;52.230;5.702;2023-08-08T11:12:38;21.10;99.90
23719;DHT22;43322;52.230;5.702;2023-08-08T11:15:05;21.00;99.90
23719;DHT22;43322;52.230;5.702;2023-08-08T11:17:32;21.20;99.90
23719;DHT22;43322;52.230;5.702;2023-08-08T11:19:59;20.80;99.90
23719;DHT22;43322;52.230;5.702;2023-08-08T11:22:27;20.60;99.90
23719;DHT22;43322;52.230;5.702;2023-08-08T11:24:55;20.80;99.90
23719;DHT22;43322;52.230;5.702;2023-08-08T11:27:28;21.10;99.90
23719;DHT22;43322;52.230;5.702;2023-08-08T11:29:56;21.40;99.90
23719;DHT22;43322;52.230;5.702;2023-08-08T11:32:24;21.90;99.90
23719;DHT22;43322;52.230;5.702;2023-08-08T11:34:52;21.60;99.90
23719;DHT22;43322;52.230;5.702;2023-08-08T11:37:19;21.40;99.90
23719;DHT22;43322;52.230;5.702;2023-08-08T11:39:46;21.00;99.90
23719;DHT22;43322;52.230;5.702;2023-08-08T11:42:15;20.80;99.90
23719;DHT22;43322;52.230;5.702;2023-08-08T11:44:42;20.60;99.90
23719;DHT22;43322;52.230;5.702;2023-08-08T11:47:09;20.70;99.90
23719;DHT22;43322;52.230;5.702;2023-08-08T11:49:40;20.80;99.90
23719;DHT22;43322;52.230;5.702;2023-08-08T11:52:07;20.20;99.90
23719;DHT22;43322;52.230;5.702;2023-08-08T11:54:36;20.10;99.90
23719;DHT22;43322;52.230;5.702;2023-08-08T11:57:03;20.30;99.90
23719;DHT22;43322;52.230;5.702;2023-08-08T11:59:32;20.10;99.90
23719;DHT22;43322;52.230;5.702;2023-08-08T12:01:59;20.00;99.90
23719;DHT22;43322;52.230;5.702;2023-08-08T12:04:25;21.30;99.90
23719;DHT22;43322;52.230;5.702;2023-08-08T12:07:00;21.70;99.90
23719;DHT22;43322;52.230;5.702;2023-08-08T12:09:29;20.90;99.90
23719;DHT22;43322;52.230;5.702;2023-08-08T12:11:59;20.40;99.90
23719;DHT22;43322;52.230;5.702;2023-08-08T12:14:25;20.30;99.90
23719;DHT22;43322;52.230;5.702;2023-08-08T12:16:54;19.90;99.90
23719;DHT22;43322;52.230;5.702;2023-08-08T12:19:23;19.70;99.90
23719;DHT22;43322;52.230;5.702;2023-08-08T12:21:50;19.80;99.90
23719;DHT22;43322;52.230;5.702;2023-08-08T12:24:17;19.50;99.90
23719;DHT22;43322;52.230;5.702;2023-08-08T12:26:43;19.80;99.90
23719;DHT22;43322;52.230;5.702;2023-08-08T12:29:10;20.20;99.90
23719;DHT22;43322;52.230;5.702;2023-08-08T12:31:37;19.90;99.90
23719;DHT22;43322;52.230;5.702;2023-08-08T12:34:06;19.70;99.90
23719;DHT22;43322;52.230;5.702;2023-08-08T12:36:32;19.70;99.90
23719;DHT22;43322;52.230;5.702;2023-08-08T12:38:59;19.90;99.90
23719;DHT22;43322;52.230;5.702;2023-08-08T12:41:26;19.90;99.90
23719;DHT22;43322;52.230;5.702;2023-08-08T12:43:55;19.60;99.90
23719;DHT22;43322;52.230;5.702;2023-08-08T12:46:22;19.70;99.90
23719;DHT22;43322;52.230;5.702;2023-08-08T12:48:48;19.80;99.90
23719;DHT22;43322;52.230;5.702;2023-08-08T12:51:18;19.80;99.90
23719;DHT22;43322;52.230;5.702;2023-08-08T12:53:45;19.90;99.90
23719;DHT22;43322;52.230;5.702;2023-08-08T12:56:11;19.60;99.90
23719;DHT22;43322;52.230;5.702;2023-08-08T12:58:38;19.40;99.90
23719;DHT22;43322;52.230;5.702;2023-08-08T13:01:06;19.50;99.90
23719;DHT22;43322;52.230;5.702;2023-08-08T13:03:32;19.40;99.90
23719;DHT22;43322;52.230;5.702;2023-08-08T13:06:00;19.10;99.90
23719;DHT22;43322;52.230;5.702;2023-08-08T13:08:28;19.20;99.90
23719;DHT22;43322;52.230;5.702;2023-08-08T13:10:55;19.40;99.90
23719;DHT22;43322;52.230;5.702;2023-08-08T13:13:21;19.50;99.90
23719;DHT22;43322;52.230;5.702;2023-08-08T13:15:50;19.60;99.90
23719;DHT22;43322;52.230;5.702;2023-08-08T13:18:17;19.50;99.90
23719;DHT22;43322;52.230;5.702;2023-08-08T13:20:44;19.30;99.90
23719;DHT22;43322;52.230;5.702;2023-08-08T13:23:10;19.10;99.90
23719;DHT22;43322;52.230;5.702;2023-08-08T13:25:38;19.50;99.90
23719;DHT22;43322;52.230;5.702;2023-08-08T13:28:06;19.30;99.90
23719;DHT22;43322;52.230;5.702;2023-08-08T13:30:33;19.70;99.90
23719;DHT22;43322;52.230;5.702;2023-08-08T13:33:01;19.70;99.90
23719;DHT22;43322;52.230;5.702;2023-08-08T13:35:28;19.90;99.90
23719;DHT22;43322;52.230;5.702;2023-08-08T13:37:55;20.20;99.90
23719;DHT22;43322;52.230;5.702;2023-08-08T13:40:22;19.90;99.90
23719;DHT22;43322;52.230;5.702;2023-08-08T13:42:50;19.50;99.90
23719;DHT22;43322;52.230;5.702;2023-08-08T13:45:17;19.20;99.90
23719;DHT22;43322;52.230;5.702;2023-08-08T13:47:44;19.20;99.90
23719;DHT22;43322;52.230;5.702;2023-08-08T13:50:11;19.50;99.90
23719;DHT22;43322;52.230;5.702;2023-08-08T13:52:38;19.40;99.90
23719;DHT22;43322;52.230;5.702;2023-08-08T13:55:06;19.20;99.90
23719;DHT22;43322;52.230;5.702;2023-08-08T13:57:32;19.20;99.90
23719;DHT22;43322;52.230;5.702;2023-08-08T14:00:01;19.30;99.90
23719;DHT22;43322;52.230;5.702;2023-08-08T14:02:28;19.60;99.90
23719;DHT22;43322;52.230;5.702;2023-08-08T14:04:55;19.60;99.90
23719;DHT22;43322;52.230;5.702;2023-08-08T14:07:22;20.00;99.90
23719;DHT22;43322;52.230;5.702;2023-08-08T14:09:49;19.60;99.90
23719;DHT22;43322;52.230;5.702;2023-08-08T14:12:15;19.80;99.90
23719;DHT22;43322;52.230;5.702;2023-08-08T14:14:42;19.70;99.90
23719;DHT22;43322;52.230;5.702;2023-08-08T14:17:10;19.60;99.90
23719;DHT22;43322;52.230;5.702;2023-08-08T14:19:37;19.30;99.90
23719;DHT22;43322;52.230;5.702;2023-08-08T14:22:03;19.30;99.90
23719;DHT22;43322;52.230;5.702;2023-08-08T14:24:30;19.20;99.90
23719;DHT22;43322;52.230;5.702;2023-08-08T14:26:57;19.40;99.90
23719;DHT22;43322;52.230;5.702;2023-08-08T14:29:24;19.70;99.90
23719;DHT22;43322;52.230;5.702;2023-08-08T14:31:50;20.20;99.90
23719;DHT22;43322;52.230;5.702;2023-08-08T14:34:18;19.70;99.90
23719;DHT22;43322;52.230;5.702;2023-08-08T14:36:45;19.30;99.90
23719;DHT22;43322;52.230;5.702;2023-08-08T14:39:12;19.10;99.90
23719;DHT22;43322;52.230;5.702;2023-08-08T14:41:39;18.90;99.90
23719;DHT22;43322;52.230;5.702;2023-08-08T14:44:05;18.80;99.90
23719;DHT22;43322;52.230;5.702;2023-08-08T14:46:32;19.50;99.90
23719;DHT22;43322;52.230;5.702;2023-08-08T14:49:00;19.90;99.90
23719;DHT22;43322;52.230;5.702;2023-08-08T14:51:28;19.70;99.90
23719;DHT22;43322;52.230;5.702;2023-08-08T14:53:54;19.40;99.90
23719;DHT22;43322;52.230;5.702;2023-08-08T14:56:21;19.50;99.90
23719;DHT22;43322;52.230;5.702;2023-08-08T14:58:48;19.70;99.90
23719;DHT22;43322;52.230;5.702;2023-08-08T15:01:15;19.70;99.90
23719;DHT22;43322;52.230;5.702;2023-08-08T15:03:41;20.50;99.90
23719;DHT22;43322;52.230;5.702;2023-08-08T15:06:08;20.90;99.90
23719;DHT22;43322;52.230;5.702;2023-08-08T15:08:36;21.30;99.90
23719;DHT22;43322;52.230;5.702;2023-08-08T15:11:03;21.30;99.90
23719;DHT22;43322;52.230;5.702;2023-08-08T15:13:31;21.40;99.90
23719;DHT22;43322;52.230;5.702;2023-08-08T15:15:57;21.90;99.90
23719;DHT22;43322;52.230;5.702;2023-08-08T15:18:24;22.00;99.90
23719;DHT22;43322;52.230;5.702;2023-08-08T15:20:51;21.50;99.90
23719;DHT22;43322;52.230;5.702;2023-08-08T15:23:17;21.10;99.90
23719;DHT22;43322;52.230;5.702;2023-08-08T15:25:46;20.50;99.90
23719;DHT22;43322;52.230;5.702;2023-08-08T15:28:12;20.30;99.90
23719;DHT22;43322;52.230;5.702;2023-08-08T15:30:39;20.30;99.90